Monterey (MRY/KMRY)

Map

Destinations

Information

Location
Monterey, CA
Local Time
16:36 / 4:36 pm
GMT Time
23:36 / 11:36 pm
Gates
1
No FAA reported delays
METAR KMRY 232254Z 26010KT 10SM CLR 22/05 A2992 RMK AO2 SLP141 T02170050
TAF KMRY 231724Z 2318/2418 VRB03KT P6SM SKC FM232000 29008KT P6SM SKC FM240300 VRB03KT P6SM SKC TEMPO 2412/2415 BKN004